sensor_id;sensor_type;location;lat;lon;timestamp;temperature;humidity
67354;SHT30;54238;52.278;21.056;2024-02-21T00:01:58;6.06;75.41
67354;SHT30;54238;52.278;21.056;2024-02-21T00:04:29;6.03;75.60
67354;SHT30;54238;52.278;21.056;2024-02-21T00:06:56;6.04;75.63
67354;SHT30;54238;52.278;21.056;2024-02-21T00:09:26;6.02;75.87
67354;SHT30;54238;52.278;21.056;2024-02-21T00:11:55;6.02;75.96
67354;SHT30;54238;52.278;21.056;2024-02-21T00:14:25;6.03;75.96
67354;SHT30;54238;52.278;21.056;2024-02-21T00:16:54;6.03;76.06
67354;SHT30;54238;52.278;21.056;2024-02-21T00:19:24;6.03;76.17
67354;SHT30;54238;52.278;21.056;2024-02-21T00:21:51;6.04;76.19
67354;SHT30;54238;52.278;21.056;2024-02-21T00:24:21;6.04;76.46
67354;SHT30;54238;52.278;21.056;2024-02-21T00:26:47;6.05;76.47
67354;SHT30;54238;52.278;21.056;2024-02-21T00:29:14;6.06;76.59
67354;SHT30;54238;52.278;21.056;2024-02-21T00:31:44;6.07;76.66
67354;SHT30;54238;52.278;21.056;2024-02-21T00:34:18;6.07;76.80
67354;SHT30;54238;52.278;21.056;2024-02-21T00:36:50;6.08;76.79
67354;SHT30;54238;52.278;21.056;2024-02-21T00:39:17;6.10;76.93
67354;SHT30;54238;52.278;21.056;2024-02-21T00:41:46;6.10;76.90
67354;SHT30;54238;52.278;21.056;2024-02-21T00:44:18;6.12;76.90
67354;SHT30;54238;52.278;21.056;2024-02-21T00:46:50;6.12;76.84
67354;SHT30;54238;52.278;21.056;2024-02-21T00:49:19;6.12;76.81
67354;SHT30;54238;52.278;21.056;2024-02-21T00:51:52;6.15;76.76
67354;SHT30;54238;52.278;21.056;2024-02-21T00:54:22;6.17;76.77
67354;SHT30;54238;52.278;21.056;2024-02-21T00:56:51;6.19;76.71
67354;SHT30;54238;52.278;21.056;2024-02-21T00:59:23;6.21;76.67
67354;SHT30;54238;52.278;21.056;2024-02-21T01:01:52;6.23;76.66
67354;SHT30;54238;52.278;21.056;2024-02-21T01:04:19;6.26;76.72
67354;SHT30;54238;52.278;21.056;2024-02-21T01:06:46;6.26;76.69
67354;SHT30;54238;52.278;21.056;2024-02-21T01:09:18;6.26;76.80
67354;SHT30;54238;52.278;21.056;2024-02-21T01:11:45;6.26;76.83
67354;SHT30;54238;52.278;21.056;2024-02-21T01:14:16;6.27;76.93
67354;SHT30;54238;52.278;21.056;2024-02-21T01:16:46;6.28;76.96
67354;SHT30;54238;52.278;21.056;2024-02-21T01:19:15;6.29;77.01
67354;SHT30;54238;52.278;21.056;2024-02-21T01:21:42;6.30;77.00
67354;SHT30;54238;52.278;21.056;2024-02-21T01:24:12;6.32;77.02
67354;SHT30;54238;52.278;21.056;2024-02-21T01:26:42;6.32;77.09
67354;SHT30;54238;52.278;21.056;2024-02-21T01:29:09;6.34;77.06
67354;SHT30;54238;52.278;21.056;2024-02-21T01:31:40;6.35;77.09
67354;SHT30;54238;52.278;21.056;2024-02-21T01:34:10;6.38;77.19
67354;SHT30;54238;52.278;21.056;2024-02-21T01:36:39;6.38;77.29
67354;SHT30;54238;52.278;21.056;2024-02-21T01:39:10;6.37;77.37
67354;SHT30;54238;52.278;21.056;2024-02-21T01:41:37;6.38;77.45
67354;SHT30;54238;52.278;21.056;2024-02-21T01:44:06;6.38;77.64
67354;SHT30;54238;52.278;21.056;2024-02-21T01:46:34;6.39;77.77
67354;SHT30;54238;52.278;21.056;2024-02-21T01:49:01;6.39;77.99
67354;SHT30;54238;52.278;21.056;2024-02-21T01:51:29;6.39;78.03
67354;SHT30;54238;52.278;21.056;2024-02-21T01:53:59;6.39;78.16
67354;SHT30;54238;52.278;21.056;2024-02-21T01:56:28;6.39;78.28
67354;SHT30;54238;52.278;21.056;2024-02-21T01:58:59;6.39;78.50
67354;SHT30;54238;52.278;21.056;2024-02-21T02:01:26;6.40;78.47
67354;SHT30;54238;52.278;21.056;2024-02-21T02:03:59;6.41;78.52
67354;SHT30;54238;52.278;21.056;2024-02-21T02:06:32;6.43;78.61
67354;SHT30;54238;52.278;21.056;2024-02-21T02:09:01;6.44;78.67
67354;SHT30;54238;52.278;21.056;2024-02-21T02:11:31;6.43;78.75
67354;SHT30;54238;52.278;21.056;2024-02-21T02:14:01;6.44;78.70
67354;SHT30;54238;52.278;21.056;2024-02-21T02:16:28;6.47;78.71
67354;SHT30;54238;52.278;21.056;2024-02-21T02:19:00;6.50;78.70
67354;SHT30;54238;52.278;21.056;2024-02-21T02:21:28;6.53;78.62
67354;SHT30;54238;52.278;21.056;2024-02-21T02:24:05;6.56;78.58
67354;SHT30;54238;52.278;21.056;2024-02-21T02:26:33;6.57;78.59
67354;SHT30;54238;52.278;21.056;2024-02-21T02:29:01;6.56;78.62
67354;SHT30;54238;52.278;21.056;2024-02-21T02:31:35;6.55;78.69
67354;SHT30;54238;52.278;21.056;2024-02-21T02:34:05;6.53;78.77
67354;SHT30;54238;52.278;21.056;2024-02-21T02:36:34;6.52;78.84
67354;SHT30;54238;52.278;21.056;2024-02-21T02:39:02;6.52;78.89
67354;SHT30;54238;52.278;21.056;2024-02-21T02:41:37;6.50;79.00
67354;SHT30;54238;52.278;21.056;2024-02-21T02:44:04;6.50;79.00
67354;SHT30;54238;52.278;21.056;2024-02-21T02:46:34;6.52;79.05
67354;SHT30;54238;52.278;21.056;2024-02-21T02:49:03;6.51;79.06
67354;SHT30;54238;52.278;21.056;2024-02-21T02:51:35;6.51;79.14
67354;SHT30;54238;52.278;21.056;2024-02-21T02:54:02;6.49;79.22
67354;SHT30;54238;52.278;21.056;2024-02-21T02:56:30;6.50;79.20
67354;SHT30;54238;52.278;21.056;2024-02-21T02:58:57;6.51;79.24
67354;SHT30;54238;52.278;21.056;2024-02-21T03:01:28;6.52;79.36
67354;SHT30;54238;52.278;21.056;2024-02-21T03:03:57;6.50;79.34
67354;SHT30;54238;52.278;21.056;2024-02-21T03:06:29;6.51;79.35
67354;SHT30;54238;52.278;21.056;2024-02-21T03:08:59;6.51;79.40
67354;SHT30;54238;52.278;21.056;2024-02-21T03:11:35;6.51;79.36
67354;SHT30;54238;52.278;21.056;2024-02-21T03:14:03;6.50;79.45
67354;SHT30;54238;52.278;21.056;2024-02-21T03:16:32;6.50;79.46
67354;SHT30;54238;52.278;21.056;2024-02-21T03:19:02;6.52;79.42
67354;SHT30;54238;52.278;21.056;2024-02-21T03:21:31;6.54;79.41
67354;SHT30;54238;52.278;21.056;2024-02-21T03:24:00;6.53;79.27
67354;SHT30;54238;52.278;21.056;2024-02-21T03:26:27;6.52;79.21
67354;SHT30;54238;52.278;21.056;2024-02-21T03:29:00;6.53;79.20
67354;SHT30;54238;52.278;21.056;2024-02-21T03:31:27;6.53;79.19
67354;SHT30;54238;52.278;21.056;2024-02-21T03:33:56;6.54;79.18
67354;SHT30;54238;52.278;21.056;2024-02-21T03:36:23;6.54;79.13
67354;SHT30;54238;52.278;21.056;2024-02-21T03:38:50;6.51;79.15
67354;SHT30;54238;52.278;21.056;2024-02-21T03:41:21;6.47;79.16
67354;SHT30;54238;52.278;21.056;2024-02-21T03:43:51;6.44;79.29
67354;SHT30;54238;52.278;21.056;2024-02-21T03:46:17;6.40;79.32
67354;SHT30;54238;52.278;21.056;2024-02-21T03:48:45;6.39;79.36
67354;SHT30;54238;52.278;21.056;2024-02-21T03:51:14;6.38;79.36
67354;SHT30;54238;52.278;21.056;2024-02-21T03:53:42;6.39;79.39
67354;SHT30;54238;52.278;21.056;2024-02-21T03:56:09;6.39;79.34
67354;SHT30;54238;52.278;21.056;2024-02-21T03:58:38;6.40;79.17
67354;SHT30;54238;52.278;21.056;2024-02-21T04:01:07;6.44;78.71
67354;SHT30;54238;52.278;21.056;2024-02-21T04:03:37;6.47;78.51
67354;SHT30;54238;52.278;21.056;2024-02-21T04:06:06;6.48;78.49
67354;SHT30;54238;52.278;21.056;2024-02-21T04:08:39;6.50;78.49
67354;SHT30;54238;52.278;21.056;2024-02-21T04:11:06;6.51;78.53
67354;SHT30;54238;52.278;21.056;2024-02-21T04:13:52;6.53;78.50
67354;SHT30;54238;52.278;21.056;2024-02-21T04:16:20;6.54;78.49
67354;SHT30;54238;52.278;21.056;2024-02-21T04:19:07;6.57;78.50
67354;SHT30;54238;52.278;21.056;2024-02-21T04:21:36;6.59;78.51
67354;SHT30;54238;52.278;21.056;2024-02-21T04:24:03;6.60;78.60
67354;SHT30;54238;52.278;21.056;2024-02-21T04:26:33;6.60;78.70
67354;SHT30;54238;52.278;21.056;2024-02-21T04:29:03;6.61;78.80
67354;SHT30;54238;52.278;21.056;2024-02-21T04:31:32;6.62;78.90
67354;SHT30;54238;52.278;21.056;2024-02-21T04:34:02;6.63;78.94
67354;SHT30;54238;52.278;21.056;2024-02-21T04:36:33;6.64;79.10
67354;SHT30;54238;52.278;21.056;2024-02-21T04:39:00;6.66;79.18
67354;SHT30;54238;52.278;21.056;2024-02-21T04:41:32;6.68;79.28
67354;SHT30;54238;52.278;21.056;2024-02-21T04:44:00;6.68;79.34
67354;SHT30;54238;52.278;21.056;2024-02-21T04:46:33;6.68;79.51
67354;SHT30;54238;52.278;21.056;2024-02-21T04:49:07;6.70;79.55
67354;SHT30;54238;52.278;21.056;2024-02-21T04:51:41;6.73;79.50
67354;SHT30;54238;52.278;21.056;2024-02-21T04:54:13;6.76;79.52
67354;SHT30;54238;52.278;21.056;2024-02-21T04:56:43;6.78;79.48
67354;SHT30;54238;52.278;21.056;2024-02-21T04:59:12;6.80;79.42
67354;SHT30;54238;52.278;21.056;2024-02-21T05:01:39;6.81;79.48
67354;SHT30;54238;52.278;21.056;2024-02-21T05:04:11;6.83;79.53
67354;SHT30;54238;52.278;21.056;2024-02-21T05:06:45;6.84;79.52
67354;SHT30;54238;52.278;21.056;2024-02-21T05:09:12;6.86;79.51
67354;SHT30;54238;52.278;21.056;2024-02-21T05:11:44;6.86;79.54
67354;SHT30;54238;52.278;21.056;2024-02-21T05:14:16;6.88;79.54
67354;SHT30;54238;52.278;21.056;2024-02-21T05:16:46;6.88;79.58
67354;SHT30;54238;52.278;21.056;2024-02-21T05:19:16;6.91;79.58
67354;SHT30;54238;52.278;21.056;2024-02-21T05:21:53;6.92;79.63
67354;SHT30;54238;52.278;21.056;2024-02-21T05:24:25;6.92;79.63
67354;SHT30;54238;52.278;21.056;2024-02-21T05:26:54;6.93;79.65
67354;SHT30;54238;52.278;21.056;2024-02-21T05:29:21;6.91;79.78
67354;SHT30;54238;52.278;21.056;2024-02-21T05:34:21;6.93;79.81
67354;SHT30;54238;52.278;21.056;2024-02-21T05:36:51;6.95;79.84
67354;SHT30;54238;52.278;21.056;2024-02-21T05:39:23;6.97;79.84
67354;SHT30;54238;52.278;21.056;2024-02-21T05:41:55;6.97;79.79
67354;SHT30;54238;52.278;21.056;2024-02-21T05:44:24;7.00;79.81
67354;SHT30;54238;52.278;21.056;2024-02-21T05:46:55;7.01;79.76
67354;SHT30;54238;52.278;21.056;2024-02-21T05:49:26;7.03;79.78
67354;SHT30;54238;52.278;21.056;2024-02-21T05:51:56;7.04;79.70
67354;SHT30;54238;52.278;21.056;2024-02-21T05:54:23;7.04;79.68
67354;SHT30;54238;52.278;21.056;2024-02-21T05:56:53;7.04;79.64
67354;SHT30;54238;52.278;21.056;2024-02-21T05:59:23;7.04;79.60
67354;SHT30;54238;52.278;21.056;2024-02-21T06:01:56;7.04;79.60
67354;SHT30;54238;52.278;21.056;2024-02-21T06:04:24;7.06;79.58
67354;SHT30;54238;52.278;21.056;2024-02-21T06:06:56;7.09;79.56
67354;SHT30;54238;52.278;21.056;2024-02-21T06:09:27;7.12;79.53
67354;SHT30;54238;52.278;21.056;2024-02-21T06:12:01;7.13;79.49
67354;SHT30;54238;52.278;21.056;2024-02-21T06:14:28;7.16;79.44
67354;SHT30;54238;52.278;21.056;2024-02-21T06:16:55;7.19;79.29
67354;SHT30;54238;52.278;21.056;2024-02-21T06:19:29;7.23;79.27
67354;SHT30;54238;52.278;21.056;2024-02-21T06:21:58;7.29;79.20
67354;SHT30;54238;52.278;21.056;2024-02-21T06:24:28;7.32;79.08
67354;SHT30;54238;52.278;21.056;2024-02-21T06:26:57;7.39;79.00
67354;SHT30;54238;52.278;21.056;2024-02-21T06:29:24;7.42;78.83
67354;SHT30;54238;52.278;21.056;2024-02-21T06:31:53;7.45;78.72
67354;SHT30;54238;52.278;21.056;2024-02-21T06:34:22;7.47;78.72
67354;SHT30;54238;52.278;21.056;2024-02-21T06:36:52;7.49;78.68
67354;SHT30;54238;52.278;21.056;2024-02-21T06:39:21;7.53;78.66
67354;SHT30;54238;52.278;21.056;2024-02-21T06:41:52;7.58;78.60
67354;SHT30;54238;52.278;21.056;2024-02-21T06:44:22;7.64;78.53
67354;SHT30;54238;52.278;21.056;2024-02-21T06:46:52;7.64;78.28
67354;SHT30;54238;52.278;21.056;2024-02-21T06:49:24;7.64;78.29
67354;SHT30;54238;52.278;21.056;2024-02-21T06:51:56;7.67;78.35
67354;SHT30;54238;52.278;21.056;2024-02-21T06:54:23;7.69;78.30
67354;SHT30;54238;52.278;21.056;2024-02-21T06:56:52;7.71;78.22
67354;SHT30;54238;52.278;21.056;2024-02-21T06:59:22;7.73;78.09
67354;SHT30;54238;52.278;21.056;2024-02-21T07:01:49;7.71;78.01
67354;SHT30;54238;52.278;21.056;2024-02-21T07:04:22;7.74;78.09
67354;SHT30;54238;52.278;21.056;2024-02-21T07:06:49;7.74;77.90
67354;SHT30;54238;52.278;21.056;2024-02-21T07:09:18;7.75;77.86
67354;SHT30;54238;52.278;21.056;2024-02-21T07:11:48;7.76;77.80
67354;SHT30;54238;52.278;21.056;2024-02-21T07:14:22;7.77;77.76
67354;SHT30;54238;52.278;21.056;2024-02-21T07:16:52;7.77;77.66
67354;SHT30;54238;52.278;21.056;2024-02-21T07:19:22;7.78;77.73
67354;SHT30;54238;52.278;21.056;2024-02-21T07:21:51;7.78;77.70
67354;SHT30;54238;52.278;21.056;2024-02-21T07:24:18;7.82;77.61
67354;SHT30;54238;52.278;21.056;2024-02-21T07:26:48;7.82;77.45
67354;SHT30;54238;52.278;21.056;2024-02-21T07:29:15;7.82;77.40
67354;SHT30;54238;52.278;21.056;2024-02-21T07:31:44;7.84;77.43
67354;SHT30;54238;52.278;21.056;2024-02-21T07:34:15;7.87;77.36
67354;SHT30;54238;52.278;21.056;2024-02-21T07:36:42;7.90;77.17
67354;SHT30;54238;52.278;21.056;2024-02-21T07:39:12;7.90;77.19
67354;SHT30;54238;52.278;21.056;2024-02-21T07:41:39;7.92;77.15
67354;SHT30;54238;52.278;21.056;2024-02-21T07:44:14;7.93;77.10
67354;SHT30;54238;52.278;21.056;2024-02-21T07:46:43;7.95;77.08
67354;SHT30;54238;52.278;21.056;2024-02-21T07:49:15;7.97;76.96
67354;SHT30;54238;52.278;21.056;2024-02-21T07:51:44;8.01;76.99
67354;SHT30;54238;52.278;21.056;2024-02-21T07:54:14;8.04;76.92
67354;SHT30;54238;52.278;21.056;2024-02-21T07:56:43;8.07;76.85
67354;SHT30;54238;52.278;21.056;2024-02-21T07:59:14;8.13;76.88
67354;SHT30;54238;52.278;21.056;2024-02-21T08:01:43;8.23;76.66
67354;SHT30;54238;52.278;21.056;2024-02-21T08:04:13;8.31;76.48
67354;SHT30;54238;52.278;21.056;2024-02-21T08:06:43;8.36;76.18
67354;SHT30;54238;52.278;21.056;2024-02-21T08:09:11;8.41;76.03
67354;SHT30;54238;52.278;21.056;2024-02-21T08:11:43;8.45;75.74
67354;SHT30;54238;52.278;21.056;2024-02-21T08:14:12;8.49;75.68
67354;SHT30;54238;52.278;21.056;2024-02-21T08:16:44;8.56;75.74
67354;SHT30;54238;52.278;21.056;2024-02-21T08:19:11;8.66;75.70
67354;SHT30;54238;52.278;21.056;2024-02-21T08:21:41;8.78;75.38
67354;SHT30;54238;52.278;21.056;2024-02-21T08:24:10;8.90;75.09
67354;SHT30;54238;52.278;21.056;2024-02-21T08:26:42;9.06;74.86
67354;SHT30;54238;52.278;21.056;2024-02-21T08:29:17;9.14;74.17
67354;SHT30;54238;52.278;21.056;2024-02-21T08:31:44;9.17;73.98
67354;SHT30;54238;52.278;21.056;2024-02-21T08:34:16;9.19;73.95
67354;SHT30;54238;52.278;21.056;2024-02-21T08:36:50;9.21;73.67
67354;SHT30;54238;52.278;21.056;2024-02-21T08:39:20;9.24;73.75
67354;SHT30;54238;52.278;21.056;2024-02-21T08:41:50;9.28;73.82
67354;SHT30;54238;52.278;21.056;2024-02-21T08:44:24;9.28;73.36
67354;SHT30;54238;52.278;21.056;2024-02-21T08:47:00;9.26;73.13
67354;SHT30;54238;52.278;21.056;2024-02-21T08:49:32;9.26;73.29
67354;SHT30;54238;52.278;21.056;2024-02-21T08:52:06;9.25;73.17
67354;SHT30;54238;52.278;21.056;2024-02-21T08:54:33;9.22;73.21
67354;SHT30;54238;52.278;21.056;2024-02-21T08:57:03;9.20;73.28
67354;SHT30;54238;52.278;21.056;2024-02-21T08:59:30;9.27;73.49
67354;SHT30;54238;52.278;21.056;2024-02-21T09:02:00;9.35;72.91
67354;SHT30;54238;52.278;21.056;2024-02-21T09:04:30;9.42;72.73
67354;SHT30;54238;52.278;21.056;2024-02-21T09:06:59;9.47;72.45
67354;SHT30;54238;52.278;21.056;2024-02-21T09:09:31;9.54;72.52
67354;SHT30;54238;52.278;21.056;2024-02-21T09:12:04;9.54;72.11
67354;SHT30;54238;52.278;21.056;2024-02-21T09:14:37;9.52;72.22
67354;SHT30;54238;52.278;21.056;2024-02-21T09:17:08;9.52;72.32
67354;SHT30;54238;52.278;21.056;2024-02-21T09:19:41;9.58;72.41
67354;SHT30;54238;52.278;21.056;2024-02-21T09:22:08;9.57;72.27
67354;SHT30;54238;52.278;21.056;2024-02-21T09:24:40;9.51;72.29
67354;SHT30;54238;52.278;21.056;2024-02-21T09:27:10;9.48;72.59
67354;SHT30;54238;52.278;21.056;2024-02-21T09:29:37;9.51;72.83
67354;SHT30;54238;52.278;21.056;2024-02-21T09:32:08;9.52;72.79
67354;SHT30;54238;52.278;21.056;2024-02-21T09:34:37;9.51;72.95
67354;SHT30;54238;52.278;21.056;2024-02-21T09:37:07;9.47;73.01
67354;SHT30;54238;52.278;21.056;2024-02-21T09:39:36;9.37;73.11
67354;SHT30;54238;52.278;21.056;2024-02-21T09:42:06;9.28;73.42
67354;SHT30;54238;52.278;21.056;2024-02-21T09:44:40;9.24;73.70
67354;SHT30;54238;52.278;21.056;2024-02-21T09:47:10;9.24;73.90
67354;SHT30;54238;52.278;21.056;2024-02-21T09:49:46;9.27;74.03
67354;SHT30;54238;52.278;21.056;2024-02-21T09:52:14;9.29;74.03
67354;SHT30;54238;52.278;21.056;2024-02-21T09:54:44;9.33;74.04
67354;SHT30;54238;52.278;21.056;2024-02-21T09:57:11;9.34;73.83
67354;SHT30;54238;52.278;21.056;2024-02-21T09:59:40;9.35;73.98
67354;SHT30;54238;52.278;21.056;2024-02-21T10:02:10;9.42;74.07
67354;SHT30;54238;52.278;21.056;2024-02-21T10:04:41;9.55;73.97
67354;SHT30;54238;52.278;21.056;2024-02-21T10:07:16;9.62;73.60
67354;SHT30;54238;52.278;21.056;2024-02-21T10:10:06;9.66;73.15
67354;SHT30;54238;52.278;21.056;2024-02-21T10:12:47;9.69;73.13
67354;SHT30;54238;52.278;21.056;2024-02-21T10:15:24;9.76;73.00
67354;SHT30;54238;52.278;21.056;2024-02-21T10:18:00;9.80;72.59
67354;SHT30;54238;52.278;21.056;2024-02-21T10:20:37;9.82;72.19
67354;SHT30;54238;52.278;21.056;2024-02-21T10:23:04;9.81;72.16
67354;SHT30;54238;52.278;21.056;2024-02-21T10:25:38;9.83;72.06
67354;SHT30;54238;52.278;21.056;2024-02-21T10:28:08;9.85;71.97
67354;SHT30;54238;52.278;21.056;2024-02-21T10:30:41;9.87;71.91
67354;SHT30;54238;52.278;21.056;2024-02-21T10:33:19;9.87;71.63
67354;SHT30;54238;52.278;21.056;2024-02-21T10:35:50;9.90;71.76
67354;SHT30;54238;52.278;21.056;2024-02-21T10:38:20;9.96;71.84
67354;SHT30;54238;52.278;21.056;2024-02-21T10:40:47;10.00;71.43
67354;SHT30;54238;52.278;21.056;2024-02-21T10:43:16;10.06;71.36
67354;SHT30;54238;52.278;21.056;2024-02-21T10:45:51;10.09;71.42
67354;SHT30;54238;52.278;21.056;2024-02-21T10:48:29;10.09;71.06
67354;SHT30;54238;52.278;21.056;2024-02-21T10:51:17;10.06;71.33
67354;SHT30;54238;52.278;21.056;2024-02-21T10:53:53;10.08;71.61
67354;SHT30;54238;52.278;21.056;2024-02-21T10:56:44;10.13;71.60
67354;SHT30;54238;52.278;21.056;2024-02-21T10:59:15;10.18;71.46
67354;SHT30;54238;52.278;21.056;2024-02-21T11:01:45;10.21;71.34
67354;SHT30;54238;52.278;21.056;2024-02-21T11:04:17;10.20;71.15
67354;SHT30;54238;52.278;21.056;2024-02-21T11:06:52;10.16;71.05
67354;SHT30;54238;52.278;21.056;2024-02-21T11:09:30;10.12;71.26
67354;SHT30;54238;52.278;21.056;2024-02-21T11:12:08;10.09;71.36
67354;SHT30;54238;52.278;21.056;2024-02-21T11:14:38;10.08;71.21
67354;SHT30;54238;52.278;21.056;2024-02-21T11:17:14;10.06;71.25
67354;SHT30;54238;52.278;21.056;2024-02-21T11:19:53;10.07;71.36
67354;SHT30;54238;52.278;21.056;2024-02-21T11:22:20;10.10;71.43
67354;SHT30;54238;52.278;21.056;2024-02-21T11:24:49;10.09;71.32
67354;SHT30;54238;52.278;21.056;2024-02-21T11:29:56;10.08;71.91
67354;SHT30;54238;52.278;21.056;2024-02-21T11:32:27;10.07;71.65
67354;SHT30;54238;52.278;21.056;2024-02-21T11:35:02;10.03;71.79
67354;SHT30;54238;52.278;21.056;2024-02-21T11:37:34;9.97;71.94
67354;SHT30;54238;52.278;21.056;2024-02-21T11:40:06;9.91;72.25
67354;SHT30;54238;52.278;21.056;2024-02-21T11:42:39;9.88;72.73
67354;SHT30;54238;52.278;21.056;2024-02-21T11:45:11;9.84;72.83
67354;SHT30;54238;52.278;21.056;2024-02-21T11:47:47;9.80;73.04
67354;SHT30;54238;52.278;21.056;2024-02-21T11:50:17;9.77;73.32
67354;SHT30;54238;52.278;21.056;2024-02-21T11:52:44;9.74;73.51
67354;SHT30;54238;52.278;21.056;2024-02-21T11:55:16;9.72;73.71
67354;SHT30;54238;52.278;21.056;2024-02-21T11:57:47;9.72;73.77
67354;SHT30;54238;52.278;21.056;2024-02-21T12:00:20;9.72;73.90
67354;SHT30;54238;52.278;21.056;2024-02-21T12:02:50;9.68;74.07
67354;SHT30;54238;52.278;21.056;2024-02-21T12:05:21;9.65;74.20
67354;SHT30;54238;52.278;21.056;2024-02-21T12:07:48;9.65;74.30
67354;SHT30;54238;52.278;21.056;2024-02-21T12:10:15;9.65;74.24
67354;SHT30;54238;52.278;21.056;2024-02-21T12:12:42;9.65;74.29
67354;SHT30;54238;52.278;21.056;2024-02-21T12:15:11;9.68;74.36
67354;SHT30;54238;52.278;21.056;2024-02-21T12:17:42;9.68;74.37
67354;SHT30;54238;52.278;21.056;2024-02-21T12:20:11;9.65;74.17
67354;SHT30;54238;52.278;21.056;2024-02-21T12:22:42;9.62;74.27
67354;SHT30;54238;52.278;21.056;2024-02-21T12:25:18;9.59;74.36
67354;SHT30;54238;52.278;21.056;2024-02-21T12:27:46;9.55;74.54
67354;SHT30;54238;52.278;21.056;2024-02-21T12:30:18;9.51;74.86
67354;SHT30;54238;52.278;21.056;2024-02-21T12:32:53;9.48;74.91
67354;SHT30;54238;52.278;21.056;2024-02-21T12:35:20;9.45;74.96
67354;SHT30;54238;52.278;21.056;2024-02-21T12:37:47;9.43;74.88
67354;SHT30;54238;52.278;21.056;2024-02-21T12:40:19;9.41;75.19
67354;SHT30;54238;52.278;21.056;2024-02-21T12:42:48;9.41;75.34
67354;SHT30;54238;52.278;21.056;2024-02-21T12:45:15;9.45;75.42
67354;SHT30;54238;52.278;21.056;2024-02-21T12:47:44;9.47;75.41
67354;SHT30;54238;52.278;21.056;2024-02-21T12:50:13;9.48;75.38
67354;SHT30;54238;52.278;21.056;2024-02-21T12:52:45;9.45;75.30
67354;SHT30;54238;52.278;21.056;2024-02-21T12:55:14;9.45;75.46
67354;SHT30;54238;52.278;21.056;2024-02-21T12:57:43;9.44;75.55
67354;SHT30;54238;52.278;21.056;2024-02-21T13:00:10;9.42;75.53
67354;SHT30;54238;52.278;21.056;2024-02-21T13:02:43;9.41;75.74
67354;SHT30;54238;52.278;21.056;2024-02-21T13:05:13;9.40;75.80
67354;SHT30;54238;52.278;21.056;2024-02-21T13:07:40;9.39;75.92
67354;SHT30;54238;52.278;21.056;2024-02-21T13:10:09;9.38;76.06
67354;SHT30;54238;52.278;21.056;2024-02-21T13:12:36;9.36;75.95
67354;SHT30;54238;52.278;21.056;2024-02-21T13:15:06;9.36;75.93
67354;SHT30;54238;52.278;21.056;2024-02-21T13:17:40;9.41;76.13
67354;SHT30;54238;52.278;21.056;2024-02-21T13:20:10;9.42;75.94
67354;SHT30;54238;52.278;21.056;2024-02-21T13:22:41;9.43;75.91
67354;SHT30;54238;52.278;21.056;2024-02-21T13:25:13;9.43;76.01
67354;SHT30;54238;52.278;21.056;2024-02-21T13:27:44;9.44;75.89
67354;SHT30;54238;52.278;21.056;2024-02-21T13:30:15;9.43;75.75
67354;SHT30;54238;52.278;21.056;2024-02-21T13:32:42;9.42;75.85
67354;SHT30;54238;52.278;21.056;2024-02-21T13:35:12;9.43;75.93
67354;SHT30;54238;52.278;21.056;2024-02-21T13:37:42;9.41;75.92
67354;SHT30;54238;52.278;21.056;2024-02-21T13:40:11;9.38;75.91
67354;SHT30;54238;52.278;21.056;2024-02-21T13:42:43;9.36;75.94
67354;SHT30;54238;52.278;21.056;2024-02-21T13:45:10;9.32;76.02
67354;SHT30;54238;52.278;21.056;2024-02-21T13:47:41;9.33;76.10
67354;SHT30;54238;52.278;21.056;2024-02-21T13:50:08;9.34;76.11
67354;SHT30;54238;52.278;21.056;2024-02-21T13:52:43;9.34;76.06
67354;SHT30;54238;52.278;21.056;2024-02-21T13:55:10;9.33;76.17
67354;SHT30;54238;52.278;21.056;2024-02-21T13:57:39;9.33;76.20
67354;SHT30;54238;52.278;21.056;2024-02-21T14:00:11;9.33;76.29
67354;SHT30;54238;52.278;21.056;2024-02-21T14:02:44;9.35;76.35
67354;SHT30;54238;52.278;21.056;2024-02-21T14:05:15;9.38;76.19
67354;SHT30;54238;52.278;21.056;2024-02-21T14:07:42;9.40;76.18
67354;SHT30;54238;52.278;21.056;2024-02-21T14:10:13;9.42;76.20
67354;SHT30;54238;52.278;21.056;2024-02-21T14:12:45;9.45;76.21
67354;SHT30;54238;52.278;21.056;2024-02-21T14:15:14;9.47;75.96
67354;SHT30;54238;52.278;21.056;2024-02-21T14:17:43;9.44;75.90
67354;SHT30;54238;52.278;21.056;2024-02-21T14:20:12;9.47;75.99
67354;SHT30;54238;52.278;21.056;2024-02-21T14:22:40;9.48;75.92
67354;SHT30;54238;52.278;21.056;2024-02-21T14:25:10;9.46;75.94
67354;SHT30;54238;52.278;21.056;2024-02-21T14:27:41;9.45;75.86
67354;SHT30;54238;52.278;21.056;2024-02-21T14:30:10;9.46;76.01
67354;SHT30;54238;52.278;21.056;2024-02-21T14:32:43;9.47;75.94
67354;SHT30;54238;52.278;21.056;2024-02-21T14:35:13;9.46;75.89
67354;SHT30;54238;52.278;21.056;2024-02-21T14:37:43;9.44;76.09
67354;SHT30;54238;52.278;21.056;2024-02-21T14:40:11;9.41;76.03
67354;SHT30;54238;52.278;21.056;2024-02-21T14:42:43;9.39;76.03
67354;SHT30;54238;52.278;21.056;2024-02-21T14:45:12;9.39;76.10
67354;SHT30;54238;52.278;21.056;2024-02-21T14:47:40;9.38;75.97
67354;SHT30;54238;52.278;21.056;2024-02-21T14:50:09;9.37;75.87
67354;SHT30;54238;52.278;21.056;2024-02-21T14:52:46;9.34;75.96
67354;SHT30;54238;52.278;21.056;2024-02-21T14:55:15;9.33;75.98
67354;SHT30;54238;52.278;21.056;2024-02-21T14:57:45;9.31;75.82
67354;SHT30;54238;52.278;21.056;2024-02-21T15:00:12;9.29;75.58
67354;SHT30;54238;52.278;21.056;2024-02-21T15:02:45;9.30;75.73
67354;SHT30;54238;52.278;21.056;2024-02-21T15:05:15;9.30;75.71
67354;SHT30;54238;52.278;21.056;2024-02-21T15:07:49;9.29;75.56
67354;SHT30;54238;52.278;21.056;2024-02-21T15:10:17;9.28;75.69
67354;SHT30;54238;52.278;21.056;2024-02-21T15:12:49;9.29;75.70
67354;SHT30;54238;52.278;21.056;2024-02-21T15:15:18;9.28;75.68
67354;SHT30;54238;52.278;21.056;2024-02-21T15:17:45;9.29;75.47
67354;SHT30;54238;52.278;21.056;2024-02-21T15:20:12;9.27;75.40
67354;SHT30;54238;52.278;21.056;2024-02-21T15:22:43;9.24;75.37
67354;SHT30;54238;52.278;21.056;2024-02-21T15:25:17;9.24;75.48
67354;SHT30;54238;52.278;21.056;2024-02-21T15:27:49;9.23;75.49
67354;SHT30;54238;52.278;21.056;2024-02-21T15:30:21;9.21;75.46
67354;SHT30;54238;52.278;21.056;2024-02-21T15:32:59;9.19;75.50
67354;SHT30;54238;52.278;21.056;2024-02-21T15:35:28;9.19;75.53
67354;SHT30;54238;52.278;21.056;2024-02-21T15:37:57;9.20;75.64
67354;SHT30;54238;52.278;21.056;2024-02-21T15:40:26;9.21;75.57
67354;SHT30;54238;52.278;21.056;2024-02-21T15:42:56;9.20;75.53
67354;SHT30;54238;52.278;21.056;2024-02-21T15:45:22;9.19;75.59
67354;SHT30;54238;52.278;21.056;2024-02-21T15:47:49;9.19;75.62
67354;SHT30;54238;52.278;21.056;2024-02-21T15:50:19;9.18;75.71
67354;SHT30;54238;52.278;21.056;2024-02-21T15:52:46;9.16;75.87
67354;SHT30;54238;52.278;21.056;2024-02-21T15:55:23;9.16;75.97